sensor_id;sensor_type;location;lat;lon;timestamp;temperature;humidity
17333;DHT22;8784;50.94667800;7.08448400;2023-06-05T00:01:23;16.70;57.00
17333;DHT22;8784;50.94667800;7.08448400;2023-06-05T00:03:49;16.70;56.50
17333;DHT22;8784;50.94667800;7.08448400;2023-06-05T00:06:20;16.60;56.70
17333;DHT22;8784;50.94667800;7.08448400;2023-06-05T00:08:47;16.60;56.90
17333;DHT22;8784;50.94667800;7.08448400;2023-06-05T00:11:13;16.50;57.10
17333;DHT22;8784;50.94667800;7.08448400;2023-06-05T00:13:40;16.40;57.30
17333;DHT22;8784;50.94667800;7.08448400;2023-06-05T00:16:07;16.40;58.10
17333;DHT22;8784;50.94667800;7.08448400;2023-06-05T00:18:34;16.30;57.60
17333;DHT22;8784;50.94667800;7.08448400;2023-06-05T00:21:01;16.30;57.70
17333;DHT22;8784;50.94667800;7.08448400;2023-06-05T00:23:30;16.30;57.70
17333;DHT22;8784;50.94667800;7.08448400;2023-06-05T00:25:57;16.20;57.60
17333;DHT22;8784;50.94667800;7.08448400;2023-06-05T00:28:25;16.10;57.70
17333;DHT22;8784;50.94667800;7.08448400;2023-06-05T00:30:52;16.20;57.80
17333;DHT22;8784;50.94667800;7.08448400;2023-06-05T00:33:19;16.10;57.70
17333;DHT22;8784;50.94667800;7.08448400;2023-06-05T00:35:46;16.10;57.80
17333;DHT22;8784;50.94667800;7.08448400;2023-06-05T00:38:13;16.00;57.90
17333;DHT22;8784;50.94667800;7.08448400;2023-06-05T00:40:41;16.00;57.90
17333;DHT22;8784;50.94667800;7.08448400;2023-06-05T00:43:08;16.00;58.00
17333;DHT22;8784;50.94667800;7.08448400;2023-06-05T00:45:35;16.00;58.10
17333;DHT22;8784;50.94667800;7.08448400;2023-06-05T00:48:02;15.90;58.20
17333;DHT22;8784;50.94667800;7.08448400;2023-06-05T00:50:31;15.90;58.30
17333;DHT22;8784;50.94667800;7.08448400;2023-06-05T00:52:59;15.90;58.40
17333;DHT22;8784;50.94667800;7.08448400;2023-06-05T00:55:27;15.80;58.60
17333;DHT22;8784;50.94667800;7.08448400;2023-06-05T00:57:56;15.70;58.80
17333;DHT22;8784;50.94667800;7.08448400;2023-06-05T01:00:24;15.70;59.00
17333;DHT22;8784;50.94667800;7.08448400;2023-06-05T01:02:50;15.60;59.10
17333;DHT22;8784;50.94667800;7.08448400;2023-06-05T01:05:19;15.60;59.50
17333;DHT22;8784;50.94667800;7.08448400;2023-06-05T01:07:46;15.50;59.80
17333;DHT22;8784;50.94667800;7.08448400;2023-06-05T01:10:14;15.40;59.90
17333;DHT22;8784;50.94667800;7.08448400;2023-06-05T01:12:45;15.40;60.10
17333;DHT22;8784;50.94667800;7.08448400;2023-06-05T01:15:14;15.30;60.20
17333;DHT22;8784;50.94667800;7.08448400;2023-06-05T01:17:42;15.30;60.70
17333;DHT22;8784;50.94667800;7.08448400;2023-06-05T01:20:13;15.20;60.80
17333;DHT22;8784;50.94667800;7.08448400;2023-06-05T01:22:40;15.20;60.90
17333;DHT22;8784;50.94667800;7.08448400;2023-06-05T01:25:09;15.10;61.20
17333;DHT22;8784;50.94667800;7.08448400;2023-06-05T01:27:42;15.00;61.20
17333;DHT22;8784;50.94667800;7.08448400;2023-06-05T01:30:16;15.00;61.30
17333;DHT22;8784;50.94667800;7.08448400;2023-06-05T01:32:51;15.00;61.60
17333;DHT22;8784;50.94667800;7.08448400;2023-06-05T01:35:20;14.90;62.00
17333;DHT22;8784;50.94667800;7.08448400;2023-06-05T01:37:54;14.80;62.20
17333;DHT22;8784;50.94667800;7.08448400;2023-06-05T01:40:26;14.80;62.50
17333;DHT22;8784;50.94667800;7.08448400;2023-06-05T01:42:54;14.80;62.70
17333;DHT22;8784;50.94667800;7.08448400;2023-06-05T01:45:22;14.70;62.80
17333;DHT22;8784;50.94667800;7.08448400;2023-06-05T01:47:50;14.70;62.90
17333;DHT22;8784;50.94667800;7.08448400;2023-06-05T01:50:17;14.60;62.80
17333;DHT22;8784;50.94667800;7.08448400;2023-06-05T01:52:45;14.50;63.00
17333;DHT22;8784;50.94667800;7.08448400;2023-06-05T01:55:15;14.50;63.00
17333;DHT22;8784;50.94667800;7.08448400;2023-06-05T01:57:44;14.50;63.10
17333;DHT22;8784;50.94667800;7.08448400;2023-06-05T02:00:13;14.40;63.40
17333;DHT22;8784;50.94667800;7.08448400;2023-06-05T02:02:41;14.40;64.30
17333;DHT22;8784;50.94667800;7.08448400;2023-06-05T02:05:09;14.30;63.50
17333;DHT22;8784;50.94667800;7.08448400;2023-06-05T02:07:37;14.30;63.90
17333;DHT22;8784;50.94667800;7.08448400;2023-06-05T02:10:06;14.20;64.00
17333;DHT22;8784;50.94667800;7.08448400;2023-06-05T02:12:33;14.20;64.20
17333;DHT22;8784;50.94667800;7.08448400;2023-06-05T02:15:01;14.20;64.50
17333;DHT22;8784;50.94667800;7.08448400;2023-06-05T02:17:31;14.10;64.60
17333;DHT22;8784;50.94667800;7.08448400;2023-06-05T02:19:59;14.10;64.70
17333;DHT22;8784;50.94667800;7.08448400;2023-06-05T02:22:29;14.10;65.00
17333;DHT22;8784;50.94667800;7.08448400;2023-06-05T02:24:58;14.00;65.10
17333;DHT22;8784;50.94667800;7.08448400;2023-06-05T02:27:25;14.00;65.20
17333;DHT22;8784;50.94667800;7.08448400;2023-06-05T02:29:52;13.90;65.20
17333;DHT22;8784;50.94667800;7.08448400;2023-06-05T02:32:22;13.90;65.30
17333;DHT22;8784;50.94667800;7.08448400;2023-06-05T02:34:51;13.80;65.40
17333;DHT22;8784;50.94667800;7.08448400;2023-06-05T02:37:18;13.80;65.40
17333;DHT22;8784;50.94667800;7.08448400;2023-06-05T02:39:48;13.70;65.50
17333;DHT22;8784;50.94667800;7.08448400;2023-06-05T02:42:15;13.70;66.60
17333;DHT22;8784;50.94667800;7.08448400;2023-06-05T02:44:44;13.60;66.00
17333;DHT22;8784;50.94667800;7.08448400;2023-06-05T02:47:11;13.60;66.20
17333;DHT22;8784;50.94667800;7.08448400;2023-06-05T02:49:39;13.50;66.40
17333;DHT22;8784;50.94667800;7.08448400;2023-06-05T02:52:06;13.60;66.60
17333;DHT22;8784;50.94667800;7.08448400;2023-06-05T02:54:33;13.50;66.70
17333;DHT22;8784;50.94667800;7.08448400;2023-06-05T02:57:00;13.40;66.80
17333;DHT22;8784;50.94667800;7.08448400;2023-06-05T02:59:27;13.40;66.90
17333;DHT22;8784;50.94667800;7.08448400;2023-06-05T03:01:57;13.40;67.00
17333;DHT22;8784;50.94667800;7.08448400;2023-06-05T03:04:24;13.30;67.20
17333;DHT22;8784;50.94667800;7.08448400;2023-06-05T03:06:52;13.30;67.30
17333;DHT22;8784;50.94667800;7.08448400;2023-06-05T03:09:22;13.30;67.20
17333;DHT22;8784;50.94667800;7.08448400;2023-06-05T03:11:50;13.20;67.50
17333;DHT22;8784;50.94667800;7.08448400;2023-06-05T03:14:18;13.20;67.80
17333;DHT22;8784;50.94667800;7.08448400;2023-06-05T03:16:44;13.10;67.60
17333;DHT22;8784;50.94667800;7.08448400;2023-06-05T03:19:11;13.00;67.80
17333;DHT22;8784;50.94667800;7.08448400;2023-06-05T03:21:39;12.90;68.20
17333;DHT22;8784;50.94667800;7.08448400;2023-06-05T03:24:09;12.90;68.40
17333;DHT22;8784;50.94667800;7.08448400;2023-06-05T03:26:38;13.00;68.60
17333;DHT22;8784;50.94667800;7.08448400;2023-06-05T03:29:06;12.90;68.40
17333;DHT22;8784;50.94667800;7.08448400;2023-06-05T03:31:33;13.00;68.60
17333;DHT22;8784;50.94667800;7.08448400;2023-06-05T03:34:00;13.00;68.70
17333;DHT22;8784;50.94667800;7.08448400;2023-06-05T03:36:29;12.90;68.70
17333;DHT22;8784;50.94667800;7.08448400;2023-06-05T03:38:58;12.80;68.70
17333;DHT22;8784;50.94667800;7.08448400;2023-06-05T03:41:28;13.00;69.10
17333;DHT22;8784;50.94667800;7.08448400;2023-06-05T03:43:54;13.00;69.00
17333;DHT22;8784;50.94667800;7.08448400;2023-06-05T03:46:22;12.90;69.10
17333;DHT22;8784;50.94667800;7.08448400;2023-06-05T03:48:49;12.90;69.30
17333;DHT22;8784;50.94667800;7.08448400;2023-06-05T03:51:18;12.90;69.70
17333;DHT22;8784;50.94667800;7.08448400;2023-06-05T03:53:46;12.90;69.70
17333;DHT22;8784;50.94667800;7.08448400;2023-06-05T03:56:20;12.80;69.70
17333;DHT22;8784;50.94667800;7.08448400;2023-06-05T03:58:50;12.80;69.90
17333;DHT22;8784;50.94667800;7.08448400;2023-06-05T04:01:17;12.80;69.70
17333;DHT22;8784;50.94667800;7.08448400;2023-06-05T04:03:45;12.90;70.10
17333;DHT22;8784;50.94667800;7.08448400;2023-06-05T04:06:11;12.90;70.10
17333;DHT22;8784;50.94667800;7.08448400;2023-06-05T04:08:38;12.80;70.20
17333;DHT22;8784;50.94667800;7.08448400;2023-06-05T04:11:06;12.80;70.20
17333;DHT22;8784;50.94667800;7.08448400;2023-06-05T04:13:33;12.80;70.20
17333;DHT22;8784;50.94667800;7.08448400;2023-06-05T04:18:47;12.90;70.60
17333;DHT22;8784;50.94667800;7.08448400;2023-06-05T04:21:14;12.90;70.70
17333;DHT22;8784;50.94667800;7.08448400;2023-06-05T04:23:41;12.90;70.70
17333;DHT22;8784;50.94667800;7.08448400;2023-06-05T04:26:08;12.90;70.90
17333;DHT22;8784;50.94667800;7.08448400;2023-06-05T04:28:36;13.00;71.00
17333;DHT22;8784;50.94667800;7.08448400;2023-06-05T04:31:03;12.90;71.60
17333;DHT22;8784;50.94667800;7.08448400;2023-06-05T04:33:30;12.90;71.10
17333;DHT22;8784;50.94667800;7.08448400;2023-06-05T04:35:58;13.00;71.20
17333;DHT22;8784;50.94667800;7.08448400;2023-06-05T04:38:25;12.90;71.00
17333;DHT22;8784;50.94667800;7.08448400;2023-06-05T04:40:53;13.00;71.30
17333;DHT22;8784;50.94667800;7.08448400;2023-06-05T04:43:20;13.10;71.50
17333;DHT22;8784;50.94667800;7.08448400;2023-06-05T04:45:48;13.10;71.40
17333;DHT22;8784;50.94667800;7.08448400;2023-06-05T04:48:15;13.10;71.30
17333;DHT22;8784;50.94667800;7.08448400;2023-06-05T04:50:42;13.20;71.30
17333;DHT22;8784;50.94667800;7.08448400;2023-06-05T04:53:11;13.30;71.50
17333;DHT22;8784;50.94667800;7.08448400;2023-06-05T04:55:38;13.30;71.30
17333;DHT22;8784;50.94667800;7.08448400;2023-06-05T04:58:05;13.50;71.50
17333;DHT22;8784;50.94667800;7.08448400;2023-06-05T05:00:31;13.50;71.40
17333;DHT22;8784;50.94667800;7.08448400;2023-06-05T05:03:00;13.50;71.40
17333;DHT22;8784;50.94667800;7.08448400;2023-06-05T05:05:29;13.60;71.30
17333;DHT22;8784;50.94667800;7.08448400;2023-06-05T05:07:56;13.70;71.30
17333;DHT22;8784;50.94667800;7.08448400;2023-06-05T05:10:24;13.80;71.30
17333;DHT22;8784;50.94667800;7.08448400;2023-06-05T05:12:51;13.90;71.10
17333;DHT22;8784;50.94667800;7.08448400;2023-06-05T05:15:18;14.10;71.20
17333;DHT22;8784;50.94667800;7.08448400;2023-06-05T05:17:45;14.10;71.30
17333;DHT22;8784;50.94667800;7.08448400;2023-06-05T05:20:12;14.20;71.20
17333;DHT22;8784;50.94667800;7.08448400;2023-06-05T05:22:40;14.30;70.90
17333;DHT22;8784;50.94667800;7.08448400;2023-06-05T05:25:08;14.40;70.80
17333;DHT22;8784;50.94667800;7.08448400;2023-06-05T05:27:37;14.50;70.70
17333;DHT22;8784;50.94667800;7.08448400;2023-06-05T05:30:04;14.60;70.50
17333;DHT22;8784;50.94667800;7.08448400;2023-06-05T05:32:31;14.80;70.40
17333;DHT22;8784;50.94667800;7.08448400;2023-06-05T05:34:58;14.90;70.20
17333;DHT22;8784;50.94667800;7.08448400;2023-06-05T05:37:25;15.00;70.20
17333;DHT22;8784;50.94667800;7.08448400;2023-06-05T05:39:52;15.10;70.40
17333;DHT22;8784;50.94667800;7.08448400;2023-06-05T05:42:19;15.20;70.30
17333;DHT22;8784;50.94667800;7.08448400;2023-06-05T05:44:47;15.20;70.20
17333;DHT22;8784;50.94667800;7.08448400;2023-06-05T05:47:14;15.30;70.20
17333;DHT22;8784;50.94667800;7.08448400;2023-06-05T05:49:41;15.40;70.20
17333;DHT22;8784;50.94667800;7.08448400;2023-06-05T05:52:08;15.40;70.60
17333;DHT22;8784;50.94667800;7.08448400;2023-06-05T05:54:35;15.50;69.90
17333;DHT22;8784;50.94667800;7.08448400;2023-06-05T05:57:03;15.50;69.80
17333;DHT22;8784;50.94667800;7.08448400;2023-06-05T05:59:30;15.60;69.80
17333;DHT22;8784;50.94667800;7.08448400;2023-06-05T06:01:58;15.70;69.80
17333;DHT22;8784;50.94667800;7.08448400;2023-06-05T06:04:26;15.80;69.60
17333;DHT22;8784;50.94667800;7.08448400;2023-06-05T06:06:53;15.90;69.50
17333;DHT22;8784;50.94667800;7.08448400;2023-06-05T06:09:21;16.10;69.50
17333;DHT22;8784;50.94667800;7.08448400;2023-06-05T06:11:50;16.20;69.20
17333;DHT22;8784;50.94667800;7.08448400;2023-06-05T06:14:20;16.30;69.20
17333;DHT22;8784;50.94667800;7.08448400;2023-06-05T06:16:47;16.50;69.10
17333;DHT22;8784;50.94667800;7.08448400;2023-06-05T06:19:16;16.60;68.90
17333;DHT22;8784;50.94667800;7.08448400;2023-06-05T06:21:48;16.80;68.60
17333;DHT22;8784;50.94667800;7.08448400;2023-06-05T06:24:16;17.00;68.30
17333;DHT22;8784;50.94667800;7.08448400;2023-06-05T06:26:45;17.20;68.00
17333;DHT22;8784;50.94667800;7.08448400;2023-06-05T06:29:13;17.50;67.60
17333;DHT22;8784;50.94667800;7.08448400;2023-06-05T06:31:41;17.70;67.20
17333;DHT22;8784;50.94667800;7.08448400;2023-06-05T06:34:08;18.00;66.90
17333;DHT22;8784;50.94667800;7.08448400;2023-06-05T06:36:37;18.20;66.30
17333;DHT22;8784;50.94667800;7.08448400;2023-06-05T06:39:06;18.60;65.60
17333;DHT22;8784;50.94667800;7.08448400;2023-06-05T06:41:33;19.00;65.00
17333;DHT22;8784;50.94667800;7.08448400;2023-06-05T06:44:01;19.60;63.90
17333;DHT22;8784;50.94667800;7.08448400;2023-06-05T06:46:27;20.50;62.60
17333;DHT22;8784;50.94667800;7.08448400;2023-06-05T06:48:54;22.60;60.40
17333;DHT22;8784;50.94667800;7.08448400;2023-06-05T06:51:21;25.30;57.80
17333;DHT22;8784;50.94667800;7.08448400;2023-06-05T06:53:50;27.80;55.20
17333;DHT22;8784;50.94667800;7.08448400;2023-06-05T06:56:17;30.00;52.70
17333;DHT22;8784;50.94667800;7.08448400;2023-06-05T06:58:44;31.80;50.40
17333;DHT22;8784;50.94667800;7.08448400;2023-06-05T07:01:13;33.30;48.20
17333;DHT22;8784;50.94667800;7.08448400;2023-06-05T07:03:40;34.60;46.60
17333;DHT22;8784;50.94667800;7.08448400;2023-06-05T07:06:09;35.70;45.10
17333;DHT22;8784;50.94667800;7.08448400;2023-06-05T07:08:37;36.70;43.90
17333;DHT22;8784;50.94667800;7.08448400;2023-06-05T07:11:05;37.60;43.00
17333;DHT22;8784;50.94667800;7.08448400;2023-06-05T07:13:32;38.30;41.40
17333;DHT22;8784;50.94667800;7.08448400;2023-06-05T07:15:59;38.90;40.70
17333;DHT22;8784;50.94667800;7.08448400;2023-06-05T07:18:26;39.50;40.10
17333;DHT22;8784;50.94667800;7.08448400;2023-06-05T07:20:53;40.10;39.30
17333;DHT22;8784;50.94667800;7.08448400;2023-06-05T07:23:20;40.50;38.40
17333;DHT22;8784;50.94667800;7.08448400;2023-06-05T07:25:47;40.90;37.70
17333;DHT22;8784;50.94667800;7.08448400;2023-06-05T07:28:15;41.30;37.20
17333;DHT22;8784;50.94667800;7.08448400;2023-06-05T07:30:42;41.70;36.40
17333;DHT22;8784;50.94667800;7.08448400;2023-06-05T07:33:10;42.00;35.90
17333;DHT22;8784;50.94667800;7.08448400;2023-06-05T07:35:38;42.40;35.50
17333;DHT22;8784;50.94667800;7.08448400;2023-06-05T07:38:05;42.80;35.10
17333;DHT22;8784;50.94667800;7.08448400;2023-06-05T07:40:32;43.10;34.40
17333;DHT22;8784;50.94667800;7.08448400;2023-06-05T07:42:59;43.40;33.90
17333;DHT22;8784;50.94667800;7.08448400;2023-06-05T07:45:27;43.50;33.80
17333;DHT22;8784;50.94667800;7.08448400;2023-06-05T07:47:54;43.80;33.30
17333;DHT22;8784;50.94667800;7.08448400;2023-06-05T07:50:21;44.10;33.10
17333;DHT22;8784;50.94667800;7.08448400;2023-06-05T07:52:48;44.40;32.20
17333;DHT22;8784;50.94667800;7.08448400;2023-06-05T07:55:15;44.60;31.90
17333;DHT22;8784;50.94667800;7.08448400;2023-06-05T07:57:42;44.80;31.70
17333;DHT22;8784;50.94667800;7.08448400;2023-06-05T08:00:10;45.00;31.50
17333;DHT22;8784;50.94667800;7.08448400;2023-06-05T08:02:39;45.20;31.30
17333;DHT22;8784;50.94667800;7.08448400;2023-06-05T08:05:07;45.40;30.90
17333;DHT22;8784;50.94667800;7.08448400;2023-06-05T08:07:34;45.70;30.70
17333;DHT22;8784;50.94667800;7.08448400;2023-06-05T08:10:01;45.90;30.40
17333;DHT22;8784;50.94667800;7.08448400;2023-06-05T08:12:28;46.20;30.20
17333;DHT22;8784;50.94667800;7.08448400;2023-06-05T08:14:55;46.30;29.90
17333;DHT22;8784;50.94667800;7.08448400;2023-06-05T08:17:21;46.50;29.80
17333;DHT22;8784;50.94667800;7.08448400;2023-06-05T08:19:50;46.60;29.70
17333;DHT22;8784;50.94667800;7.08448400;2023-06-05T08:22:17;46.90;29.50
17333;DHT22;8784;50.94667800;7.08448400;2023-06-05T08:24:44;47.10;29.30
17333;DHT22;8784;50.94667800;7.08448400;2023-06-05T08:27:14;47.10;29.10
17333;DHT22;8784;50.94667800;7.08448400;2023-06-05T08:29:41;47.40;29.20
17333;DHT22;8784;50.94667800;7.08448400;2023-06-05T08:32:07;47.50;28.90
17333;DHT22;8784;50.94667800;7.08448400;2023-06-05T08:34:34;47.60;28.70
17333;DHT22;8784;50.94667800;7.08448400;2023-06-05T08:37:03;47.70;28.50
17333;DHT22;8784;50.94667800;7.08448400;2023-06-05T08:39:30;47.80;28.30
17333;DHT22;8784;50.94667800;7.08448400;2023-06-05T08:41:59;48.10;28.50
17333;DHT22;8784;50.94667800;7.08448400;2023-06-05T08:44:29;48.20;28.40
17333;DHT22;8784;50.94667800;7.08448400;2023-06-05T08:46:59;48.30;28.10
17333;DHT22;8784;50.94667800;7.08448400;2023-06-05T08:49:27;48.30;28.10
17333;DHT22;8784;50.94667800;7.08448400;2023-06-05T08:51:59;48.30;27.90
17333;DHT22;8784;50.94667800;7.08448400;2023-06-05T08:54:32;48.40;28.00
17333;DHT22;8784;50.94667800;7.08448400;2023-06-05T08:57:00;48.60;28.00
17333;DHT22;8784;50.94667800;7.08448400;2023-06-05T08:59:28;48.70;28.20
17333;DHT22;8784;50.94667800;7.08448400;2023-06-05T09:01:56;48.90;27.90
17333;DHT22;8784;50.94667800;7.08448400;2023-06-05T09:04:24;49.00;27.60
17333;DHT22;8784;50.94667800;7.08448400;2023-06-05T09:06:51;49.20;27.50
17333;DHT22;8784;50.94667800;7.08448400;2023-06-05T09:09:18;49.40;27.30
17333;DHT22;8784;50.94667800;7.08448400;2023-06-05T09:11:47;49.40;27.20
17333;DHT22;8784;50.94667800;7.08448400;2023-06-05T09:14:25;49.40;27.10
17333;DHT22;8784;50.94667800;7.08448400;2023-06-05T09:16:52;49.30;27.00
17333;DHT22;8784;50.94667800;7.08448400;2023-06-05T09:19:19;49.50;26.90
17333;DHT22;8784;50.94667800;7.08448400;2023-06-05T09:21:52;49.50;26.80
17333;DHT22;8784;50.94667800;7.08448400;2023-06-05T09:24:21;49.40;26.70
17333;DHT22;8784;50.94667800;7.08448400;2023-06-05T09:26:55;49.30;26.70
17333;DHT22;8784;50.94667800;7.08448400;2023-06-05T09:29:27;48.90;26.70
17333;DHT22;8784;50.94667800;7.08448400;2023-06-05T09:31:55;48.20;26.80
17333;DHT22;8784;50.94667800;7.08448400;2023-06-05T09:34:24;47.40;27.10
17333;DHT22;8784;50.94667800;7.08448400;2023-06-05T09:36:51;46.40;27.30
17333;DHT22;8784;50.94667800;7.08448400;2023-06-05T09:39:21;45.50;27.50
17333;DHT22;8784;50.94667800;7.08448400;2023-06-05T09:41:50;44.70;27.60
17333;DHT22;8784;50.94667800;7.08448400;2023-06-05T09:44:19;43.80;28.60
17333;DHT22;8784;50.94667800;7.08448400;2023-06-05T09:46:50;43.10;28.40
17333;DHT22;8784;50.94667800;7.08448400;2023-06-05T09:49:18;42.30;28.70
17333;DHT22;8784;50.94667800;7.08448400;2023-06-05T09:51:45;41.80;28.90
17333;DHT22;8784;50.94667800;7.08448400;2023-06-05T09:54:13;41.40;29.20
17333;DHT22;8784;50.94667800;7.08448400;2023-06-05T09:56:41;41.10;29.30
17333;DHT22;8784;50.94667800;7.08448400;2023-06-05T09:59:08;40.90;29.20
17333;DHT22;8784;50.94667800;7.08448400;2023-06-05T10:01:40;40.60;29.40
17333;DHT22;8784;50.94667800;7.08448400;2023-06-05T10:04:10;40.60;29.20
17333;DHT22;8784;50.94667800;7.08448400;2023-06-05T10:06:38;40.40;29.00
17333;DHT22;8784;50.94667800;7.08448400;2023-06-05T10:09:07;40.10;28.50
17333;DHT22;8784;50.94667800;7.08448400;2023-06-05T10:11:35;39.90;28.90
17333;DHT22;8784;50.94667800;7.08448400;2023-06-05T10:14:05;39.90;28.90
17333;DHT22;8784;50.94667800;7.08448400;2023-06-05T10:16:32;39.80;28.50
17333;DHT22;8784;50.94667800;7.08448400;2023-06-05T10:19:03;39.70;28.30
17333;DHT22;8784;50.94667800;7.08448400;2023-06-05T10:21:30;39.40;28.40
17333;DHT22;8784;50.94667800;7.08448400;2023-06-05T10:23:59;39.40;28.60
17333;DHT22;8784;50.94667800;7.08448400;2023-06-05T10:27:02;39.30;28.30
17333;DHT22;8784;50.94667800;7.08448400;2023-06-05T10:32:36;39.00;28.30
17333;DHT22;8784;50.94667800;7.08448400;2023-06-05T10:35:15;38.90;28.40
17333;DHT22;8784;50.94667800;7.08448400;2023-06-05T10:38:00;39.00;28.40
17333;DHT22;8784;50.94667800;7.08448400;2023-06-05T10:40:30;38.90;28.40
17333;DHT22;8784;50.94667800;7.08448400;2023-06-05T10:43:28;38.80;28.80
17333;DHT22;8784;50.94667800;7.08448400;2023-06-05T10:45:56;38.90;28.40
17333;DHT22;8784;50.94667800;7.08448400;2023-06-05T10:51:34;38.40;27.20
17333;DHT22;8784;50.94667800;7.08448400;2023-06-05T10:54:03;37.40;27.80
17333;DHT22;8784;50.94667800;7.08448400;2023-06-05T10:56:57;37.30;28.10
17333;DHT22;8784;50.94667800;7.08448400;2023-06-05T10:59:26;37.40;27.80
17333;DHT22;8784;50.94667800;7.08448400;2023-06-05T11:02:24;36.40;28.00
17333;DHT22;8784;50.94667800;7.08448400;2023-06-05T11:05:08;36.00;28.20
17333;DHT22;8784;50.94667800;7.08448400;2023-06-05T11:07:40;35.40;28.50
17333;DHT22;8784;50.94667800;7.08448400;2023-06-05T11:10:13;34.60;28.90
17333;DHT22;8784;50.94667800;7.08448400;2023-06-05T11:12:54;34.10;29.30
17333;DHT22;8784;50.94667800;7.08448400;2023-06-05T11:15:37;34.10;29.30
17333;DHT22;8784;50.94667800;7.08448400;2023-06-05T11:18:27;34.00;29.70
17333;DHT22;8784;50.94667800;7.08448400;2023-06-05T11:20:54;33.50;29.50
17333;DHT22;8784;50.94667800;7.08448400;2023-06-05T11:23:23;32.90;30.00
17333;DHT22;8784;50.94667800;7.08448400;2023-06-05T11:25:54;32.40;30.10
17333;DHT22;8784;50.94667800;7.08448400;2023-06-05T11:28:39;32.20;30.30
17333;DHT22;8784;50.94667800;7.08448400;2023-06-05T11:31:07;32.10;30.60
17333;DHT22;8784;50.94667800;7.08448400;2023-06-05T11:33:34;32.20;30.90
17333;DHT22;8784;50.94667800;7.08448400;2023-06-05T11:36:05;32.10;31.10
17333;DHT22;8784;50.94667800;7.08448400;2023-06-05T11:38:34;31.90;31.40
17333;DHT22;8784;50.94667800;7.08448400;2023-06-05T11:41:06;31.50;31.90
17333;DHT22;8784;50.94667800;7.08448400;2023-06-05T11:43:40;31.30;32.00
17333;DHT22;8784;50.94667800;7.08448400;2023-06-05T11:46:07;31.30;32.00
17333;DHT22;8784;50.94667800;7.08448400;2023-06-05T11:48:43;31.20;32.10
17333;DHT22;8784;50.94667800;7.08448400;2023-06-05T11:51:11;31.00;31.80
17333;DHT22;8784;50.94667800;7.08448400;2023-06-05T11:53:44;30.80;32.00
17333;DHT22;8784;50.94667800;7.08448400;2023-06-05T11:56:14;30.70;32.40
17333;DHT22;8784;50.94667800;7.08448400;2023-06-05T11:58:42;30.70;32.60
17333;DHT22;8784;50.94667800;7.08448400;2023-06-05T12:01:11;30.80;32.50
17333;DHT22;8784;50.94667800;7.08448400;2023-06-05T12:03:40;30.70;32.60
17333;DHT22;8784;50.94667800;7.08448400;2023-06-05T12:06:08;30.70;32.60
17333;DHT22;8784;50.94667800;7.08448400;2023-06-05T12:08:35;30.70;32.90
17333;DHT22;8784;50.94667800;7.08448400;2023-06-05T12:11:12;30.70;32.70
17333;DHT22;8784;50.94667800;7.08448400;2023-06-05T12:13:46;30.70;32.50
17333;DHT22;8784;50.94667800;7.08448400;2023-06-05T12:16:13;30.60;32.60
17333;DHT22;8784;50.94667800;7.08448400;2023-06-05T12:18:41;30.50;32.30
17333;DHT22;8784;50.94667800;7.08448400;2023-06-05T12:21:19;30.50;32.00
17333;DHT22;8784;50.94667800;7.08448400;2023-06-05T12:23:47;30.50;31.70
17333;DHT22;8784;50.94667800;7.08448400;2023-06-05T12:26:16;30.20;32.00
17333;DHT22;8784;50.94667800;7.08448400;2023-06-05T12:28:44;29.90;31.30
17333;DHT22;8784;50.94667800;7.08448400;2023-06-05T12:31:33;29.60;31.80
17333;DHT22;8784;50.94667800;7.08448400;2023-06-05T12:34:01;29.60;31.80
17333;DHT22;8784;50.94667800;7.08448400;2023-06-05T12:36:28;29.50;31.60
17333;DHT22;8784;50.94667800;7.08448400;2023-06-05T12:38:55;29.30;31.90
17333;DHT22;8784;50.94667800;7.08448400;2023-06-05T12:41:23;29.30;31.80
17333;DHT22;8784;50.94667800;7.08448400;2023-06-05T12:44:01;29.40;32.10
17333;DHT22;8784;50.94667800;7.08448400;2023-06-05T12:46:30;29.40;32.00
17333;DHT22;8784;50.94667800;7.08448400;2023-06-05T12:48:57;29.20;32.00
17333;DHT22;8784;50.94667800;7.08448400;2023-06-05T12:51:25;29.30;32.10
17333;DHT22;8784;50.94667800;7.08448400;2023-06-05T12:53:53;29.30;31.80
17333;DHT22;8784;50.94667800;7.08448400;2023-06-05T12:56:22;29.10;31.50
17333;DHT22;8784;50.94667800;7.08448400;2023-06-05T12:58:51;28.80;31.80
17333;DHT22;8784;50.94667800;7.08448400;2023-06-05T13:01:20;28.80;31.90
17333;DHT22;8784;50.94667800;7.08448400;2023-06-05T13:03:47;28.80;32.10
17333;DHT22;8784;50.94667800;7.08448400;2023-06-05T13:06:14;29.00;32.30
17333;DHT22;8784;50.94667800;7.08448400;2023-06-05T13:08:41;29.20;32.50
17333;DHT22;8784;50.94667800;7.08448400;2023-06-05T13:11:08;29.40;32.40
17333;DHT22;8784;50.94667800;7.08448400;2023-06-05T13:13:37;29.60;32.30
17333;DHT22;8784;50.94667800;7.08448400;2023-06-05T13:16:04;29.50;32.20
17333;DHT22;8784;50.94667800;7.08448400;2023-06-05T13:18:33;29.40;32.70
17333;DHT22;8784;50.94667800;7.08448400;2023-06-05T13:21:01;29.20;33.10
17333;DHT22;8784;50.94667800;7.08448400;2023-06-05T13:23:28;29.10;33.50
17333;DHT22;8784;50.94667800;7.08448400;2023-06-05T13:25:55;29.20;33.90
17333;DHT22;8784;50.94667800;7.08448400;2023-06-05T13:28:22;29.30;34.10
17333;DHT22;8784;50.94667800;7.08448400;2023-06-05T13:30:50;29.40;34.30
17333;DHT22;8784;50.94667800;7.08448400;2023-06-05T13:33:18;29.40;34.40
17333;DHT22;8784;50.94667800;7.08448400;2023-06-05T13:35:46;29.40;34.40
17333;DHT22;8784;50.94667800;7.08448400;2023-06-05T13:38:13;29.30;34.00
17333;DHT22;8784;50.94667800;7.08448400;2023-06-05T13:40:40;29.20;35.00
17333;DHT22;8784;50.94667800;7.08448400;2023-06-05T13:43:12;29.30;34.70
17333;DHT22;8784;50.94667800;7.08448400;2023-06-05T13:45:40;29.50;34.80
17333;DHT22;8784;50.94667800;7.08448400;2023-06-05T13:48:09;29.50;34.80
17333;DHT22;8784;50.94667800;7.08448400;2023-06-05T13:50:37;29.50;34.90
17333;DHT22;8784;50.94667800;7.08448400;2023-06-05T13:53:04;29.50;34.90